| time (UTC) | temp F | wind direction | speed MPH | gust MPH | rain 1hr in | rain 24hr in | rain mn in | humidity % | barometer mb |
| 20260903213018 | 79 | 193 | 0.0 | 1.0 | 0.00 | 1.17 | 0.75 | 76 | 1014.1 |
| 20260903211516 | 80 | 245 | 0.0 | 2.0 | 0.00 | 1.17 | 0.75 | 74 | 1014.1 |
| 20260903210020 | 80 | 300 | 0.0 | 2.0 | 0.00 | 1.17 | 0.75 | 74 | 1014.3 |
| 20260903204525 | 80 | 209 | 0.0 | 4.0 | 0.00 | 1.17 | 0.75 | 73 | 1014.4 |
| 20260903203013 | 78 | 238 | 0.0 | 3.0 | 0.00 | 1.17 | 0.75 | 77 | 1014.5 |
| 20260903201515 | 78 | 134 | 0.0 | 4.0 | 0.00 | 1.17 | 0.75 | 76 | 1014.7 |
| 20260903200024 | 79 | 224 | 0.0 | 3.0 | 0.00 | 1.17 | 0.75 | 74 | 1014.7 |
| 20260903194524 | 80 | 217 | 3.0 | 8.0 | 0.00 | 1.20 | 0.75 | 72 | 1014.4 |
| 20260903193007 | 80 | 244 | 0.0 | 4.0 | 0.00 | 1.21 | 0.75 | 73 | 1014.6 |
| 20260903191514 | 79 | 346 | 0.0 | 4.0 | 0.00 | 1.23 | 0.75 | 75 | 1014.8 |
| 20260903190020 | 77 | 242 | 0.0 | 3.0 | 0.00 | 1.24 | 0.75 | 79 | 1015.2 |
| 20260903184525 | 78 | 168 | 0.0 | 3.0 | 0.00 | 1.25 | 0.75 | 78 | 1015.3 |
| 20260903183024 | 78 | 194 | 0.0 | 4.0 | 0.00 | 1.27 | 0.75 | 75 | 1015.3 |
| 20260903181510 | 78 | 193 | 0.0 | 4.0 | 0.00 | 1.28 | 0.75 | 75 | 1015.5 |
| 20260903180024 | 79 | 213 | 0.0 | 3.0 | 0.00 | 1.30 | 0.75 | 76 | 1015.5 |
| 20260903174528 | 77 | 260 | 0.0 | 1.0 | 0.00 | 1.31 | 0.75 | 79 | 1015.5 |
| 20260903173027 | 77 | 232 | 0.0 | 7.0 | 0.00 | 1.33 | 0.75 | 78 | 1015.6 |
| 20260903171527 | 78 | 277 | 0.0 | 4.0 | 0.00 | 1.35 | 0.75 | 79 | 1015.6 |
| 20260903170019 | 77 | 237 | 1.0 | 5.0 | 0.00 | 1.36 | 0.75 | 78 | 1015.8 |
| 20260903164517 | 76 | 185 | 0.0 | 4.0 | 0.00 | 1.38 | 0.75 | 81 | 1015.9 |
| 20260903163023 | 76 | 127 | 0.0 | 5.0 | 0.00 | 1.40 | 0.75 | 82 | 1015.9 |
| 20260903161531 | 75 | 304 | 0.0 | 3.0 | 0.00 | 1.42 | 0.75 | 85 | 1016.2 |
| 20260903160052 | 74 | 164 | 0.0 | 4.0 | 0.00 | 1.44 | 0.75 | 86 | 1016.2 |
| 20260903154519 | 72 | 241 | 0.0 | 3.0 | 0.00 | 1.46 | 0.75 | 88 | 1016.5 |
| 20260903153024 | 71 | 276 | 0.0 | 2.0 | 0.00 | 1.49 | 0.75 | 89 | 1016.7 |
| 20260903151530 | 70 | 240 | 0.0 | 3.0 | 0.00 | 1.52 | 0.75 | 90 | 1016.7 |
| 20260903150032 | 70 | 256 | 0.0 | 3.0 | 0.00 | 1.54 | 0.75 | 93 | 1016.6 |
| 20260903144528 | 69 | 229 | 0.0 | 3.0 | 0.00 | 1.57 | 0.75 | 95 | 1016.5 |
| 20260903143024 | 68 | 290 | 0.0 | 4.0 | 0.00 | 1.60 | 0.75 | 96 | 1016.5 |
| 20260903141527 | 68 | 252 | 1.0 | 4.0 | 0.00 | 1.62 | 0.75 | 96 | 1016.6 |
| 20260903140007 | 68 | 251 | 0.0 | 3.0 | 0.00 | 1.62 | 0.75 | 96 | 1016.7 |
| 20260903134513 | 68 | 202 | 1.0 | 3.0 | 0.00 | 1.62 | 0.75 | 96 | 1016.4 |
| 20260903133019 | 68 | 232 | 0.0 | 3.0 | 0.00 | 1.62 | 0.75 | 97 | 1016.2 |
| 20260903131523 | 68 | 229 | 0.0 | 3.0 | 0.01 | 1.62 | 0.75 | 97 | 1016.2 |
| 20260903130004 | 67 | 242 | 0.0 | 3.0 | 0.01 | 1.62 | 0.75 | 97 | 1016.5 |
| 20260903124506 | 67 | 205 | 0.0 | 2.0 | 0.02 | 1.62 | 0.75 | 97 | 1016.5 |
| 20260903123010 | 67 | 229 | 0.0 | 1.0 | 0.03 | 1.62 | 0.75 | 97 | 1016.4 |
| 20260903121520 | 67 | 259 | 0.0 | 1.0 | 0.03 | 1.61 | 0.74 | 97 | 1016.2 |
| 20260903120024 | 66 | 259 | 0.0 | 0.0 | 0.04 | 1.61 | 0.74 | 97 | 1016.1 |
| 20260903114507 | 65 | 259 | 0.0 | 0.0 | 0.04 | 1.60 | 0.73 | 96 | 1016.0 |
| 20260903113008 | 64 | 259 | 0.0 | 0.0 | 0.04 | 1.59 | 0.72 | 96 | 1016.0 |
| 20260903111513 | 64 | 259 | 0.0 | 0.0 | 0.04 | 1.58 | 0.71 | 96 | 1015.7 |
| 20260903110027 | 64 | 259 | 0.0 | 0.0 | 0.04 | 1.57 | 0.70 | 96 | 1015.8 |
| 20260903104527 | 64 | 259 | 0.0 | 0.0 | 0.05 | 1.56 | 0.69 | 96 | 1015.8 |
| 20260903103011 | 64 | 259 | 0.0 | 0.0 | 0.05 | 1.55 | 0.68 | 96 | 1015.8 |
| 20260903101516 | 64 | 259 | 0.0 | 0.0 | 0.06 | 1.54 | 0.67 | 96 | 1015.7 |
| 20260903100021 | 64 | 265 | 0.0 | 1.0 | 0.06 | 1.53 | 0.66 | 96 | 1015.9 |
| 20260903094532 | 64 | 207 | 0.0 | 1.0 | 0.06 | 1.51 | 0.64 | 96 | 1015.9 |
| 20260903093040 | 64 | 272 | 0.0 | 0.0 | 0.06 | 1.50 | 0.63 | 96 | 1016.1 |
| 20260903091510 | 64 | 272 | 0.0 | 0.0 | 0.06 | 1.48 | 0.61 | 96 | 1016.2 |
| 20260903090027 | 64 | 272 | 0.0 | 0.0 | 0.07 | 1.47 | 0.60 | 96 | 1016.1 |
| 20260903084525 | 64 | 272 | 0.0 | 1.0 | 0.08 | 1.45 | 0.58 | 96 | 1015.9 |
| 20260903083025 | 64 | 272 | 0.0 | 0.0 | 0.09 | 1.44 | 0.57 | 96 | 1015.9 |
| 20260903081532 | 64 | 272 | 0.0 | 1.0 | 0.09 | 1.42 | 0.55 | 96 | 1015.9 |
| 20260903080013 | 64 | 273 | 0.0 | 0.0 | 0.10 | 1.40 | 0.52 | 96 | 1015.9 |
| 20260903074518 | 64 | 273 | 0.0 | 0.0 | 0.10 | 1.37 | 0.50 | 96 | 1015.9 |
| 20260903073032 | 64 | 273 | 0.0 | 0.0 | 0.11 | 1.35 | 0.48 | 96 | 1016.1 |
| 20260903071536 | 64 | 273 | 0.0 | 0.0 | 0.12 | 1.33 | 0.46 | 96 | 1016.1 |
| 20260903070030 | 64 | 167 | 0.0 | 1.0 | 0.12 | 1.30 | 0.43 | 96 | 1016.0 |
| 20260903064516 | 64 | 220 | 0.0 | 0.0 | 0.12 | 1.27 | 0.40 | 96 | 1016.0 |
| 20260903063023 | 64 | 220 | 0.0 | 0.0 | 0.13 | 1.24 | 0.37 | 96 | 1016.1 |
| 20260903061539 | 64 | 248 | 0.0 | 1.0 | 0.13 | 1.21 | 0.34 | 95 | 1016.3 |
| 20260903060033 | 64 | 232 | 0.0 | 1.0 | 0.14 | 1.17 | 0.31 | 95 | 1016.7 |
| 20260903054532 | 65 | 167 | 0.0 | 0.0 | 0.15 | 1.15 | 0.28 | 95 | 1016.5 |
| 20260903053018 | 65 | 166 | 0.0 | 0.0 | 0.15 | 1.11 | 0.24 | 95 | 1016.3 |
| 20260903051525 | 65 | 144 | 0.0 | 2.0 | 0.16 | 1.08 | 0.21 | 95 | 1016.6 |
| 20260903050021 | 65 | 210 | 0.0 | 2.0 | 0.17 | 1.04 | 0.17 | 95 | 1016.5 |
| 20260903044508 | 66 | 182 | 0.0 | 3.0 | 0.17 | 1.00 | 0.13 | 95 | 1016.4 |
| 20260903043016 | 66 | 244 | 0.0 | 4.0 | 0.17 | 0.96 | 0.09 | 95 | 1017.7 |
| 20260903041531 | 66 | 182 | 0.0 | 6.0 | 0.17 | 0.92 | 0.05 | 95 | 1018.5 |
| 20260903040320 | 67 | 298 | 0.0 | 4.0 | 0.17 | 0.87 | 0.00 | 95 | 1019.5 |
| 20260903034510 | 67 | 267 | 0.0 | 3.0 | 0.18 | 0.83 | 0.83 | 95 | 1017.1 |
| 20260903033010 | 67 | 199 | 0.0 | 1.0 | 0.19 | 0.79 | 0.79 | 95 | 1016.7 |
| 20260903031518 | 67 | 217 | 0.0 | 4.0 | 0.20 | 0.75 | 0.75 | 95 | 1017.5 |
| 20260903030026 | 67 | 229 | 0.0 | 2.0 | 0.21 | 0.70 | 0.70 | 95 | 1017.8 |
| 20260903024508 | 66 | 285 | 0.0 | 3.0 | 0.17 | 0.65 | 0.65 | 95 | 1018.8 |
| 20260903023008 | 66 | 261 | 0.0 | 2.0 | 0.14 | 0.60 | 0.60 | 94 | 1018.7 |
| 20260903021514 | 66 | 153 | 0.0 | 9.0 | 0.10 | 0.55 | 0.55 | 93 | 1018.4 |
| 20260903020022 | 68 | 23 | 8.0 | 24.0 | 0.04 | 0.49 | 0.49 | 93 | 1020.1 |
| 20260903014532 | 68 | 257 | 0.0 | 1.0 | 0.04 | 0.48 | 0.48 | 93 | 1018.1 |
| 20260903013008 | 68 | 98 | 0.0 | 1.0 | 0.02 | 0.46 | 0.46 | 93 | 1018.0 |
| 20260903011510 | 68 | 217 | 0.0 | 5.0 | 0.01 | 0.45 | 0.45 | 93 | 1018.1 |
| 20260903010016 | 68 | 177 | 0.0 | 7.0 | 0.01 | 0.45 | 0.45 | 93 | 1017.6 |
| 20260903004539 | 68 | 233 | 0.0 | 5.0 | 0.00 | 0.44 | 0.44 | 93 | 1017.5 |
| 20260903003031 | 68 | 134 | 0.0 | 3.0 | 0.00 | 0.44 | 0.44 | 93 | 1017.4 |
| 20260903001509 | 69 | 146 | 0.0 | 5.0 | 0.00 | 0.44 | 0.44 | 93 | 1017.6 |
| 20260903000017 | 69 | 203 | 0.0 | 5.0 | 0.00 | 0.44 | 0.44 | 93 | 1017.3 |
| 20260902234523 | 69 | 155 | 0.0 | 4.0 | 0.00 | 0.44 | 0.44 | 93 | 1017.6 |
| 20260902233027 | 69 | 165 | 0.0 | 4.0 | 0.00 | 0.44 | 0.44 | 93 | 1017.7 |
| 20260902231528 | 69 | 196 | 0.0 | 3.0 | 0.00 | 0.44 | 0.44 | 93 | 1017.6 |
| 20260902230014 | 69 | 130 | 0.0 | 3.0 | 0.00 | 0.44 | 0.44 | 93 | 1017.5 |
| 20260902224520 | 69 | 134 | 0.0 | 3.0 | 0.00 | 0.44 | 0.44 | 94 | 1017.3 |
| 20260902223029 | 69 | 103 | 0.0 | 4.0 | 0.00 | 0.44 | 0.44 | 94 | 1017.3 |
| 20260902221530 | 69 | 141 | 0.0 | 3.0 | 0.00 | 0.44 | 0.44 | 94 | 1017.5 |
| 20260902220032 | 69 | 114 | 0.0 | 2.0 | 0.00 | 0.44 | 0.44 | 94 | 1017.8 |
| 20260902214525 | 69 | 150 | 0.0 | 2.0 | 0.00 | 0.44 | 0.44 | 94 | 1018.1 |